AQ2 weather

Green Island Lightstation Helipad
Green Island, British Columbia, Canada

Public forecast

Using degrees Celsius for public forecast. Weather courtesy of forecast.io.

Closest aviation weather report (METAR) to Green Island Lightstation Helipad

Closest report is Prince Rupert Airport, 19.3 nm (35.7 km) SSE. Retrieved 2019/11/13 01:38 UTC (0 seconds ago):

CYPR 130138Z AUTO 15009KT 3SM -RA BR FEW009 OVC015 09/09 A2992 RMK VIS VRB 1 3/4-3 SLP134

Closest aviation forecast (TAF) to Green Island Lightstation Helipad

Closest forecast is Prince Rupert Airport, 19.3 nm (35.7 km) SSE. Retrieved 2019-11-13 01:42 UTC (0 seconds ago):

TAF CYPR 130041Z 1301/1313 13010KT P6SM -RA SCT015 OVC030 TEMPO 1301/1304 2SM SHRA BR BKN006 OVC015 FM130400 15010KT P6SM SCT015 BKN040 TEMPO 1304/1313 5SM -SHRA BR BKN015 OVC040 RMK FCST BASED ON AUTO OBS NXT FCST BY 130700Z